This is the latest recevied weather packets stored in our database for station/object VK3ABC-13. If no packets are shown the sender has not sent any weather packets the latest 10 day(s).
| Time | Temp. | Humidity | Pressure | Rain* | Wind** | Luminosity | Snow |
|---|---|---|---|---|---|---|---|
| 1777774516 | 17.78° C | 88% | 1006.6 hPa | 6.6 mm | - | 158 W/m² | - |
| 1777774217 | 17.78° C | 88% | 1006.7 hPa | 6.86 mm | - | 35 W/m² | - |
| 1777773316 | 17.78° C | 88% | 1007.5 hPa | 6.6 mm | - | 28 W/m² | - |
| 1777773018 | 17.78° C | 87% | 1007.9 hPa | 6.35 mm | - | 14 W/m² | - |
| 1777772716 | 18.33° C | 87% | 1008.2 hPa | 5.84 mm | - | 12 W/m² | - |
| 1777772116 | 18.33° C | 86% | 1009 hPa | 5.33 mm | - | 11 W/m² | - |
| 1777771217 | 18.89° C | 84% | 1008.8 hPa | 3.81 mm | - | 12 W/m² | - |
| 1777767617 | 21.11° C | 71% | 1008.5 hPa | 0 mm | - | 46 W/m² | - |
| 1777764618 | 21.67° C | 69% | 1007.9 hPa | 0 mm | - | 63 W/m² | - |
| 1777764316 | 21.67° C | 69% | 1007.9 hPa | 0 mm | - | 76 W/m² | - |
| 1777764017 | 21.67° C | 68% | 1007.9 hPa | 0 mm | - | 93 W/m² | - |
| 1777763716 | 21.67° C | 68% | 1007.8 hPa | 0 mm | - | 104 W/m² | - |
| 1777760716 | 19.44° C | 77% | 1008.4 hPa | 0 mm | - | 105 W/m² | - |
| 1777760417 | 19.44° C | 78% | 1008.6 hPa | 0 mm | - | 79 W/m² | - |
| 1777760116 | 19.44° C | 79% | 1008.7 hPa | 0 mm | - | 67 W/m² | - |
| 1777758617 | 18.89° C | 79% | 1008.8 hPa | 0 mm | - | 25 W/m² | - |
| 1777754116 | 20° C | 72% | 1009.6 hPa | 0 mm | - | 0 W/m² | - |
| 1777753216 | 20.56° C | 70% | 1009.3 hPa | 0 mm | - | 0 W/m² | - |
| 1777752916 | 20.56° C | 69% | 1009.4 hPa | 0 mm | - | 0 W/m² | - |
| 1777751417 | 20.56° C | 68% | 1009.5 hPa | 0 mm | - | 0 W/m² | - |
| 1777750817 | 21.11° C | 67% | 1009.5 hPa | 0 mm | - | 0 W/m² | - |
| 1777746617 | 17.22° C | 81% | 1009 hPa | 0 mm | - | 0 W/m² | - |
| 1777745715 | 16.67° C | 82% | 1009.2 hPa | 0 mm | - | 0 W/m² | - |
| 1777743018 | 16.11° C | 82% | 1009.3 hPa | 0 mm | - | 0 W/m² | - |
| 1777742417 | 16.11° C | 81% | 1009.6 hPa | 0 mm | - | 0 W/m² | - |
* Rain latest hour (hover to see other rain measurements)
** Current wind speed in m/s (hover to see current wind gust speed)